sensor_id;sensor_type;location;lat;lon;timestamp;temperature;humidity
9497;DHT22;4786;51.270;4.456;2024-01-25T00:02:18;10.20;99.90
9497;DHT22;4786;51.270;4.456;2024-01-25T00:04:44;10.20;99.90
9497;DHT22;4786;51.270;4.456;2024-01-25T00:07:10;10.20;99.90
9497;DHT22;4786;51.270;4.456;2024-01-25T00:09:36;10.20;99.90
9497;DHT22;4786;51.270;4.456;2024-01-25T00:12:03;10.20;99.90
9497;DHT22;4786;51.270;4.456;2024-01-25T00:14:29;10.10;99.90
9497;DHT22;4786;51.270;4.456;2024-01-25T00:16:54;10.00;99.90
9497;DHT22;4786;51.270;4.456;2024-01-25T00:19:20;10.00;99.90
9497;DHT22;4786;51.270;4.456;2024-01-25T00:21:46;10.10;99.90
9497;DHT22;4786;51.270;4.456;2024-01-25T00:24:12;9.90;99.90
9497;DHT22;4786;51.270;4.456;2024-01-25T00:26:38;9.90;99.90
9497;DHT22;4786;51.270;4.456;2024-01-25T00:29:04;9.90;99.90
9497;DHT22;4786;51.270;4.456;2024-01-25T00:31:31;9.90;99.90
9497;DHT22;4786;51.270;4.456;2024-01-25T00:33:57;9.80;99.90
9497;DHT22;4786;51.270;4.456;2024-01-25T00:36:25;9.80;99.90
9497;DHT22;4786;51.270;4.456;2024-01-25T00:38:51;9.70;99.90
9497;DHT22;4786;51.270;4.456;2024-01-25T00:41:18;9.70;99.90
9497;DHT22;4786;51.270;4.456;2024-01-25T00:43:47;9.60;99.90
9497;DHT22;4786;51.270;4.456;2024-01-25T00:46:14;9.60;99.90
9497;DHT22;4786;51.270;4.456;2024-01-25T00:48:40;9.60;99.90
9497;DHT22;4786;51.270;4.456;2024-01-25T00:51:07;9.50;99.90
9497;DHT22;4786;51.270;4.456;2024-01-25T00:53:34;9.50;99.90
9497;DHT22;4786;51.270;4.456;2024-01-25T00:56:00;9.50;99.90
9497;DHT22;4786;51.270;4.456;2024-01-25T00:58:27;9.50;99.90
9497;DHT22;4786;51.270;4.456;2024-01-25T01:00:52;9.40;99.90
9497;DHT22;4786;51.270;4.456;2024-01-25T01:03:19;9.30;99.90
9497;DHT22;4786;51.270;4.456;2024-01-25T01:05:45;9.30;99.90
9497;DHT22;4786;51.270;4.456;2024-01-25T01:08:12;9.30;99.90
9497;DHT22;4786;51.270;4.456;2024-01-25T01:10:38;9.20;99.90
9497;DHT22;4786;51.270;4.456;2024-01-25T01:13:04;9.20;99.90
9497;DHT22;4786;51.270;4.456;2024-01-25T01:15:30;9.10;99.90
9497;DHT22;4786;51.270;4.456;2024-01-25T01:17:56;9.10;99.90
9497;DHT22;4786;51.270;4.456;2024-01-25T01:20:22;9.10;99.90
9497;DHT22;4786;51.270;4.456;2024-01-25T01:22:48;9.00;99.90
9497;DHT22;4786;51.270;4.456;2024-01-25T01:25:13;9.00;99.90
9497;DHT22;4786;51.270;4.456;2024-01-25T01:27:39;8.90;99.90
9497;DHT22;4786;51.270;4.456;2024-01-25T01:30:06;8.90;99.90
9497;DHT22;4786;51.270;4.456;2024-01-25T01:32:33;8.90;99.90
9497;DHT22;4786;51.270;4.456;2024-01-25T01:35:00;8.90;99.90
9497;DHT22;4786;51.270;4.456;2024-01-25T01:37:26;8.80;99.90
9497;DHT22;4786;51.270;4.456;2024-01-25T01:39:52;8.70;99.90
9497;DHT22;4786;51.270;4.456;2024-01-25T01:42:18;8.60;99.90
9497;DHT22;4786;51.270;4.456;2024-01-25T01:44:44;8.50;99.90
9497;DHT22;4786;51.270;4.456;2024-01-25T01:47:10;8.60;99.90
9497;DHT22;4786;51.270;4.456;2024-01-25T01:49:35;8.50;99.90
9497;DHT22;4786;51.270;4.456;2024-01-25T01:52:02;8.40;99.90
9497;DHT22;4786;51.270;4.456;2024-01-25T01:54:28;8.40;99.90
9497;DHT22;4786;51.270;4.456;2024-01-25T01:56:54;8.30;99.90
9497;DHT22;4786;51.270;4.456;2024-01-25T01:59:20;8.30;99.90
9497;DHT22;4786;51.270;4.456;2024-01-25T02:01:47;8.20;99.90
9497;DHT22;4786;51.270;4.456;2024-01-25T02:04:12;8.10;99.90
9497;DHT22;4786;51.270;4.456;2024-01-25T02:06:39;8.10;99.90
9497;DHT22;4786;51.270;4.456;2024-01-25T02:09:06;8.10;99.90
9497;DHT22;4786;51.270;4.456;2024-01-25T02:11:32;8.00;99.90
9497;DHT22;4786;51.270;4.456;2024-01-25T02:13:58;7.90;99.90
9497;DHT22;4786;51.270;4.456;2024-01-25T02:16:24;7.80;99.90
9497;DHT22;4786;51.270;4.456;2024-01-25T02:18:50;7.80;99.90
9497;DHT22;4786;51.270;4.456;2024-01-25T02:21:16;7.80;99.90
9497;DHT22;4786;51.270;4.456;2024-01-25T02:23:42;7.80;99.90
9497;DHT22;4786;51.270;4.456;2024-01-25T02:26:08;7.80;99.90
9497;DHT22;4786;51.270;4.456;2024-01-25T02:28:34;7.70;99.90
9497;DHT22;4786;51.270;4.456;2024-01-25T02:31:01;7.70;99.90
9497;DHT22;4786;51.270;4.456;2024-01-25T02:33:27;7.60;99.90
9497;DHT22;4786;51.270;4.456;2024-01-25T02:35:52;7.70;99.90
9497;DHT22;4786;51.270;4.456;2024-01-25T02:38:18;7.70;99.90
9497;DHT22;4786;51.270;4.456;2024-01-25T02:40:44;7.60;99.90
9497;DHT22;4786;51.270;4.456;2024-01-25T02:43:10;7.50;99.90
9497;DHT22;4786;51.270;4.456;2024-01-25T02:45:36;7.60;99.90
9497;DHT22;4786;51.270;4.456;2024-01-25T02:48:02;7.70;99.90
9497;DHT22;4786;51.270;4.456;2024-01-25T02:50:29;7.60;99.90
9497;DHT22;4786;51.270;4.456;2024-01-25T02:52:55;7.50;99.90
9497;DHT22;4786;51.270;4.456;2024-01-25T02:55:21;7.40;99.90
9497;DHT22;4786;51.270;4.456;2024-01-25T02:57:46;7.30;99.90
9497;DHT22;4786;51.270;4.456;2024-01-25T03:00:13;7.30;99.90
9497;DHT22;4786;51.270;4.456;2024-01-25T03:02:39;7.20;99.90
9497;DHT22;4786;51.270;4.456;2024-01-25T03:05:05;7.30;99.90
9497;DHT22;4786;51.270;4.456;2024-01-25T03:07:31;7.30;99.90
9497;DHT22;4786;51.270;4.456;2024-01-25T03:09:57;7.20;99.90
9497;DHT22;4786;51.270;4.456;2024-01-25T03:12:23;7.10;99.90
9497;DHT22;4786;51.270;4.456;2024-01-25T03:14:49;7.20;99.90
9497;DHT22;4786;51.270;4.456;2024-01-25T03:17:15;7.10;99.90
9497;DHT22;4786;51.270;4.456;2024-01-25T03:19:40;7.00;99.90
9497;DHT22;4786;51.270;4.456;2024-01-25T03:22:06;7.00;99.90
9497;DHT22;4786;51.270;4.456;2024-01-25T03:24:32;7.00;99.90
9497;DHT22;4786;51.270;4.456;2024-01-25T03:26:58;6.90;99.90
9497;DHT22;4786;51.270;4.456;2024-01-25T03:29:24;6.90;99.90
9497;DHT22;4786;51.270;4.456;2024-01-25T03:31:49;6.80;99.90
9497;DHT22;4786;51.270;4.456;2024-01-25T03:34:16;6.80;99.90
9497;DHT22;4786;51.270;4.456;2024-01-25T03:36:41;6.80;99.90
9497;DHT22;4786;51.270;4.456;2024-01-25T03:39:07;6.70;99.90
9497;DHT22;4786;51.270;4.456;2024-01-25T03:41:33;6.70;99.90
9497;DHT22;4786;51.270;4.456;2024-01-25T03:43:59;6.60;99.90
9497;DHT22;4786;51.270;4.456;2024-01-25T03:46:25;6.70;99.90
9497;DHT22;4786;51.270;4.456;2024-01-25T03:48:51;6.70;99.90
9497;DHT22;4786;51.270;4.456;2024-01-25T03:51:17;6.60;99.90
9497;DHT22;4786;51.270;4.456;2024-01-25T03:53:43;6.60;99.90
9497;DHT22;4786;51.270;4.456;2024-01-25T03:56:13;6.50;99.90
9497;DHT22;4786;51.270;4.456;2024-01-25T03:58:39;6.50;99.90
9497;DHT22;4786;51.270;4.456;2024-01-25T04:01:04;6.50;99.90
9497;DHT22;4786;51.270;4.456;2024-01-25T04:03:31;6.50;99.90
9497;DHT22;4786;51.270;4.456;2024-01-25T04:05:56;6.40;99.90
9497;DHT22;4786;51.270;4.456;2024-01-25T04:08:22;6.40;99.90
9497;DHT22;4786;51.270;4.456;2024-01-25T04:10:48;6.40;99.90
9497;DHT22;4786;51.270;4.456;2024-01-25T04:13:14;6.30;99.90
9497;DHT22;4786;51.270;4.456;2024-01-25T04:15:40;6.30;99.90
9497;DHT22;4786;51.270;4.456;2024-01-25T04:18:05;6.30;99.90
9497;DHT22;4786;51.270;4.456;2024-01-25T04:20:31;6.30;99.90
9497;DHT22;4786;51.270;4.456;2024-01-25T04:22:59;6.30;99.90
9497;DHT22;4786;51.270;4.456;2024-01-25T04:25:25;6.20;99.90
9497;DHT22;4786;51.270;4.456;2024-01-25T04:27:50;6.20;99.90
9497;DHT22;4786;51.270;4.456;2024-01-25T04:30:16;6.10;99.90
9497;DHT22;4786;51.270;4.456;2024-01-25T04:32:42;6.10;99.90
9497;DHT22;4786;51.270;4.456;2024-01-25T04:35:08;6.00;99.90
9497;DHT22;4786;51.270;4.456;2024-01-25T04:37:35;6.00;99.90
9497;DHT22;4786;51.270;4.456;2024-01-25T04:40:01;6.00;99.90
9497;DHT22;4786;51.270;4.456;2024-01-25T04:42:27;5.90;99.90
9497;DHT22;4786;51.270;4.456;2024-01-25T04:44:53;6.00;99.90
9497;DHT22;4786;51.270;4.456;2024-01-25T04:47:19;5.90;99.90
9497;DHT22;4786;51.270;4.456;2024-01-25T04:49:45;6.00;99.90
9497;DHT22;4786;51.270;4.456;2024-01-25T04:52:12;6.00;99.90
9497;DHT22;4786;51.270;4.456;2024-01-25T04:54:38;6.10;99.90
9497;DHT22;4786;51.270;4.456;2024-01-25T04:57:04;6.00;99.90
9497;DHT22;4786;51.270;4.456;2024-01-25T04:59:49;6.00;99.90
9497;DHT22;4786;51.270;4.456;2024-01-25T05:02:16;5.90;99.90
9497;DHT22;4786;51.270;4.456;2024-01-25T05:04:42;5.80;99.90
9497;DHT22;4786;51.270;4.456;2024-01-25T05:07:08;5.80;99.90
9497;DHT22;4786;51.270;4.456;2024-01-25T05:09:33;5.90;99.90
9497;DHT22;4786;51.270;4.456;2024-01-25T05:11:59;5.90;99.90
9497;DHT22;4786;51.270;4.456;2024-01-25T05:14:27;5.80;99.90
9497;DHT22;4786;51.270;4.456;2024-01-25T05:16:53;5.80;99.90
9497;DHT22;4786;51.270;4.456;2024-01-25T05:19:19;5.70;99.90
9497;DHT22;4786;51.270;4.456;2024-01-25T05:21:45;5.70;99.90
9497;DHT22;4786;51.270;4.456;2024-01-25T05:24:11;5.70;99.90
9497;DHT22;4786;51.270;4.456;2024-01-25T05:26:38;5.60;99.90
9497;DHT22;4786;51.270;4.456;2024-01-25T05:29:04;5.70;99.90
9497;DHT22;4786;51.270;4.456;2024-01-25T05:31:30;5.70;99.90
9497;DHT22;4786;51.270;4.456;2024-01-25T05:33:56;5.50;99.90
9497;DHT22;4786;51.270;4.456;2024-01-25T05:36:22;5.40;99.90
9497;DHT22;4786;51.270;4.456;2024-01-25T05:38:48;5.50;99.90
9497;DHT22;4786;51.270;4.456;2024-01-25T05:41:14;5.60;99.90
9497;DHT22;4786;51.270;4.456;2024-01-25T05:43:41;5.60;99.90
9497;DHT22;4786;51.270;4.456;2024-01-25T05:46:06;5.60;99.90
9497;DHT22;4786;51.270;4.456;2024-01-25T05:48:32;5.60;99.90
9497;DHT22;4786;51.270;4.456;2024-01-25T05:50:58;5.60;99.90
9497;DHT22;4786;51.270;4.456;2024-01-25T05:53:24;5.60;99.90
9497;DHT22;4786;51.270;4.456;2024-01-25T05:55:51;5.50;99.90
9497;DHT22;4786;51.270;4.456;2024-01-25T05:58:17;5.50;99.90
9497;DHT22;4786;51.270;4.456;2024-01-25T06:00:44;5.50;99.90
9497;DHT22;4786;51.270;4.456;2024-01-25T06:03:09;5.50;99.90
9497;DHT22;4786;51.270;4.456;2024-01-25T06:05:36;5.50;99.90
9497;DHT22;4786;51.270;4.456;2024-01-25T06:08:01;5.50;99.90
9497;DHT22;4786;51.270;4.456;2024-01-25T06:10:27;5.50;99.90
9497;DHT22;4786;51.270;4.456;2024-01-25T06:12:53;5.50;99.90
9497;DHT22;4786;51.270;4.456;2024-01-25T06:15:19;5.50;99.90
9497;DHT22;4786;51.270;4.456;2024-01-25T06:17:45;5.50;99.90
9497;DHT22;4786;51.270;4.456;2024-01-25T06:20:12;5.50;99.90
9497;DHT22;4786;51.270;4.456;2024-01-25T06:22:38;5.40;99.90
9497;DHT22;4786;51.270;4.456;2024-01-25T06:25:04;5.40;99.90
9497;DHT22;4786;51.270;4.456;2024-01-25T06:27:31;5.40;99.90
9497;DHT22;4786;51.270;4.456;2024-01-25T06:29:57;5.40;99.90
9497;DHT22;4786;51.270;4.456;2024-01-25T06:32:23;5.40;99.90
9497;DHT22;4786;51.270;4.456;2024-01-25T06:34:49;5.40;99.90
9497;DHT22;4786;51.270;4.456;2024-01-25T06:37:15;5.60;99.90
9497;DHT22;4786;51.270;4.456;2024-01-25T06:39:44;5.40;99.90
9497;DHT22;4786;51.270;4.456;2024-01-25T06:42:10;5.30;99.90
9497;DHT22;4786;51.270;4.456;2024-01-25T06:44:36;5.30;99.90
9497;DHT22;4786;51.270;4.456;2024-01-25T06:47:03;5.30;99.90
9497;DHT22;4786;51.270;4.456;2024-01-25T06:49:29;5.30;99.90
9497;DHT22;4786;51.270;4.456;2024-01-25T06:51:55;5.40;99.90
9497;DHT22;4786;51.270;4.456;2024-01-25T06:54:20;5.40;99.90
9497;DHT22;4786;51.270;4.456;2024-01-25T06:56:46;5.40;99.90
9497;DHT22;4786;51.270;4.456;2024-01-25T06:59:12;5.40;99.90
9497;DHT22;4786;51.270;4.456;2024-01-25T07:01:38;5.40;99.90
9497;DHT22;4786;51.270;4.456;2024-01-25T07:04:03;5.50;99.90
9497;DHT22;4786;51.270;4.456;2024-01-25T07:06:30;5.50;99.90
9497;DHT22;4786;51.270;4.456;2024-01-25T07:08:56;5.50;99.90
9497;DHT22;4786;51.270;4.456;2024-01-25T07:11:22;5.50;99.90
9497;DHT22;4786;51.270;4.456;2024-01-25T07:13:48;5.50;99.90
9497;DHT22;4786;51.270;4.456;2024-01-25T07:16:14;5.50;99.90
9497;DHT22;4786;51.270;4.456;2024-01-25T07:18:40;5.50;99.90
9497;DHT22;4786;51.270;4.456;2024-01-25T07:21:06;5.60;99.90
9497;DHT22;4786;51.270;4.456;2024-01-25T07:23:33;5.60;99.90
9497;DHT22;4786;51.270;4.456;2024-01-25T07:25:59;5.70;99.90
9497;DHT22;4786;51.270;4.456;2024-01-25T07:28:25;5.80;99.90
9497;DHT22;4786;51.270;4.456;2024-01-25T07:30:51;5.80;99.90
9497;DHT22;4786;51.270;4.456;2024-01-25T07:33:18;5.80;99.90
9497;DHT22;4786;51.270;4.456;2024-01-25T07:35:44;5.80;99.90
9497;DHT22;4786;51.270;4.456;2024-01-25T07:38:16;5.90;99.90
9497;DHT22;4786;51.270;4.456;2024-01-25T07:40:42;5.90;99.90
9497;DHT22;4786;51.270;4.456;2024-01-25T07:43:08;5.90;99.90
9497;DHT22;4786;51.270;4.456;2024-01-25T07:45:34;6.00;99.90
9497;DHT22;4786;51.270;4.456;2024-01-25T07:48:00;6.00;99.90
9497;DHT22;4786;51.270;4.456;2024-01-25T07:50:26;6.10;99.90
9497;DHT22;4786;51.270;4.456;2024-01-25T07:52:54;6.10;99.90
9497;DHT22;4786;51.270;4.456;2024-01-25T07:55:20;6.10;99.90
9497;DHT22;4786;51.270;4.456;2024-01-25T07:57:46;6.10;99.90
9497;DHT22;4786;51.270;4.456;2024-01-25T08:00:12;6.10;99.90
9497;DHT22;4786;51.270;4.456;2024-01-25T08:02:38;6.10;99.90
9497;DHT22;4786;51.270;4.456;2024-01-25T08:05:05;6.10;99.90
9497;DHT22;4786;51.270;4.456;2024-01-25T08:07:32;6.10;99.90
9497;DHT22;4786;51.270;4.456;2024-01-25T08:09:58;6.30;99.90
9497;DHT22;4786;51.270;4.456;2024-01-25T08:12:25;6.30;99.90
9497;DHT22;4786;51.270;4.456;2024-01-25T08:14:52;6.40;99.90
9497;DHT22;4786;51.270;4.456;2024-01-25T08:17:18;6.50;99.90
9497;DHT22;4786;51.270;4.456;2024-01-25T08:19:45;6.50;99.90
9497;DHT22;4786;51.270;4.456;2024-01-25T08:22:11;6.50;99.90
9497;DHT22;4786;51.270;4.456;2024-01-25T08:24:41;6.50;99.90
9497;DHT22;4786;51.270;4.456;2024-01-25T08:27:07;6.50;99.90
9497;DHT22;4786;51.270;4.456;2024-01-25T08:29:33;6.50;99.90
9497;DHT22;4786;51.270;4.456;2024-01-25T08:31:59;6.50;99.90
9497;DHT22;4786;51.270;4.456;2024-01-25T08:34:25;6.50;99.90
9497;DHT22;4786;51.270;4.456;2024-01-25T08:36:51;6.50;99.90
9497;DHT22;4786;51.270;4.456;2024-01-25T08:39:17;6.60;99.90
9497;DHT22;4786;51.270;4.456;2024-01-25T08:41:43;6.70;99.90
9497;DHT22;4786;51.270;4.456;2024-01-25T08:44:11;6.80;99.90
9497;DHT22;4786;51.270;4.456;2024-01-25T08:46:37;6.90;99.90
9497;DHT22;4786;51.270;4.456;2024-01-25T08:49:03;7.00;99.90
9497;DHT22;4786;51.270;4.456;2024-01-25T08:51:34;7.00;99.90
9497;DHT22;4786;51.270;4.456;2024-01-25T08:54:00;7.00;99.90
9497;DHT22;4786;51.270;4.456;2024-01-25T08:56:26;7.00;99.90
9497;DHT22;4786;51.270;4.456;2024-01-25T08:58:52;7.10;99.90
9497;DHT22;4786;51.270;4.456;2024-01-25T09:01:17;7.10;99.90
9497;DHT22;4786;51.270;4.456;2024-01-25T09:03:43;7.20;99.90
9497;DHT22;4786;51.270;4.456;2024-01-25T09:06:10;7.30;99.90
9497;DHT22;4786;51.270;4.456;2024-01-25T09:08:36;7.20;99.90
9497;DHT22;4786;51.270;4.456;2024-01-25T09:11:02;7.40;99.90
9497;DHT22;4786;51.270;4.456;2024-01-25T09:13:28;7.50;99.90
9497;DHT22;4786;51.270;4.456;2024-01-25T09:15:55;7.60;99.90
9497;DHT22;4786;51.270;4.456;2024-01-25T09:18:21;7.70;99.90
9497;DHT22;4786;51.270;4.456;2024-01-25T09:20:47;7.70;99.90
9497;DHT22;4786;51.270;4.456;2024-01-25T09:23:14;7.80;99.90
9497;DHT22;4786;51.270;4.456;2024-01-25T09:25:46;7.90;99.90
9497;DHT22;4786;51.270;4.456;2024-01-25T09:28:12;8.00;99.90
9497;DHT22;4786;51.270;4.456;2024-01-25T09:30:41;8.00;99.90
9497;DHT22;4786;51.270;4.456;2024-01-25T09:33:07;8.10;99.90
9497;DHT22;4786;51.270;4.456;2024-01-25T09:35:33;8.20;99.90
9497;DHT22;4786;51.270;4.456;2024-01-25T09:37:59;8.30;99.90
9497;DHT22;4786;51.270;4.456;2024-01-25T09:40:25;8.40;99.90
9497;DHT22;4786;51.270;4.456;2024-01-25T09:42:52;8.40;99.90
9497;DHT22;4786;51.270;4.456;2024-01-25T09:45:19;8.50;99.90
9497;DHT22;4786;51.270;4.456;2024-01-25T09:47:45;8.50;99.90
9497;DHT22;4786;51.270;4.456;2024-01-25T09:50:11;8.60;99.90
9497;DHT22;4786;51.270;4.456;2024-01-25T09:52:38;8.60;99.90
9497;DHT22;4786;51.270;4.456;2024-01-25T09:55:07;8.70;99.90
9497;DHT22;4786;51.270;4.456;2024-01-25T09:57:35;8.70;99.90
9497;DHT22;4786;51.270;4.456;2024-01-25T10:00:05;8.70;99.90
9497;DHT22;4786;51.270;4.456;2024-01-25T10:02:37;8.70;99.90
9497;DHT22;4786;51.270;4.456;2024-01-25T10:05:03;8.70;99.90
9497;DHT22;4786;51.270;4.456;2024-01-25T10:07:43;8.80;99.90
9497;DHT22;4786;51.270;4.456;2024-01-25T10:10:10;8.80;99.90
9497;DHT22;4786;51.270;4.456;2024-01-25T10:12:42;8.90;99.90
9497;DHT22;4786;51.270;4.456;2024-01-25T10:15:09;8.90;99.90
9497;DHT22;4786;51.270;4.456;2024-01-25T10:17:35;9.00;99.90
9497;DHT22;4786;51.270;4.456;2024-01-25T10:20:01;9.10;99.90
9497;DHT22;4786;51.270;4.456;2024-01-25T10:22:27;9.10;99.90
9497;DHT22;4786;51.270;4.456;2024-01-25T10:24:53;9.00;99.90
9497;DHT22;4786;51.270;4.456;2024-01-25T10:27:20;8.90;99.90
9497;DHT22;4786;51.270;4.456;2024-01-25T10:29:46;8.90;99.90
9497;DHT22;4786;51.270;4.456;2024-01-25T10:32:13;8.90;99.90
9497;DHT22;4786;51.270;4.456;2024-01-25T10:34:39;8.90;99.90
9497;DHT22;4786;51.270;4.456;2024-01-25T10:37:05;8.90;99.90
9497;DHT22;4786;51.270;4.456;2024-01-25T10:39:32;8.90;99.90
9497;DHT22;4786;51.270;4.456;2024-01-25T10:41:59;9.00;99.90
9497;DHT22;4786;51.270;4.456;2024-01-25T10:44:25;9.00;99.90
9497;DHT22;4786;51.270;4.456;2024-01-25T10:46:51;8.90;99.90
9497;DHT22;4786;51.270;4.456;2024-01-25T10:49:18;8.90;99.90
9497;DHT22;4786;51.270;4.456;2024-01-25T10:51:45;8.90;99.90
9497;DHT22;4786;51.270;4.456;2024-01-25T10:54:14;8.90;99.90
9497;DHT22;4786;51.270;4.456;2024-01-25T10:56:45;9.00;99.90
9497;DHT22;4786;51.270;4.456;2024-01-25T10:59:12;9.00;99.90
9497;DHT22;4786;51.270;4.456;2024-01-25T11:01:46;9.00;99.90
9497;DHT22;4786;51.270;4.456;2024-01-25T11:04:12;9.00;99.90
9497;DHT22;4786;51.270;4.456;2024-01-25T11:06:39;8.90;99.90
9497;DHT22;4786;51.270;4.456;2024-01-25T11:09:06;8.90;99.90
9497;DHT22;4786;51.270;4.456;2024-01-25T11:11:32;8.90;99.90
9497;DHT22;4786;51.270;4.456;2024-01-25T11:13:58;8.80;99.90
9497;DHT22;4786;51.270;4.456;2024-01-25T11:16:32;8.80;99.90
9497;DHT22;4786;51.270;4.456;2024-01-25T11:19:20;8.80;99.90
9497;DHT22;4786;51.270;4.456;2024-01-25T11:21:50;8.60;99.90
9497;DHT22;4786;51.270;4.456;2024-01-25T11:24:22;8.40;99.90
9497;DHT22;4786;51.270;4.456;2024-01-25T11:26:48;8.60;99.90
9497;DHT22;4786;51.270;4.456;2024-01-25T11:29:18;8.70;99.90
9497;DHT22;4786;51.270;4.456;2024-01-25T11:31:46;8.60;99.90
9497;DHT22;4786;51.270;4.456;2024-01-25T11:34:14;8.70;99.90
9497;DHT22;4786;51.270;4.456;2024-01-25T11:36:40;8.70;99.90
9497;DHT22;4786;51.270;4.456;2024-01-25T11:39:09;8.80;99.90
9497;DHT22;4786;51.270;4.456;2024-01-25T11:41:35;8.80;99.90
9497;DHT22;4786;51.270;4.456;2024-01-25T11:44:02;8.80;99.90
9497;DHT22;4786;51.270;4.456;2024-01-25T11:46:29;8.90;99.90
9497;DHT22;4786;51.270;4.456;2024-01-25T11:48:55;8.90;99.90
9497;DHT22;4786;51.270;4.456;2024-01-25T11:51:21;9.00;99.90
9497;DHT22;4786;51.270;4.456;2024-01-25T11:53:47;9.00;99.90
9497;DHT22;4786;51.270;4.456;2024-01-25T11:56:17;9.00;99.90
9497;DHT22;4786;51.270;4.456;2024-01-25T11:58:45;9.00;99.90
9497;DHT22;4786;51.270;4.456;2024-01-25T12:01:13;9.10;99.90
9497;DHT22;4786;51.270;4.456;2024-01-25T12:03:40;9.20;99.90
9497;DHT22;4786;51.270;4.456;2024-01-25T12:06:06;9.20;99.90
9497;DHT22;4786;51.270;4.456;2024-01-25T12:08:34;9.10;99.90
9497;DHT22;4786;51.270;4.456;2024-01-25T12:11:10;9.10;99.90
9497;DHT22;4786;51.270;4.456;2024-01-25T12:13:40;9.30;99.90
9497;DHT22;4786;51.270;4.456;2024-01-25T12:16:06;9.20;99.90
9497;DHT22;4786;51.270;4.456;2024-01-25T12:18:33;9.30;99.90
9497;DHT22;4786;51.270;4.456;2024-01-25T12:21:02;9.30;99.90
9497;DHT22;4786;51.270;4.456;2024-01-25T12:23:46;9.30;99.90
9497;DHT22;4786;51.270;4.456;2024-01-25T12:26:12;9.30;99.90
9497;DHT22;4786;51.270;4.456;2024-01-25T12:28:38;9.30;99.90
9497;DHT22;4786;51.270;4.456;2024-01-25T12:31:05;9.30;99.90
9497;DHT22;4786;51.270;4.456;2024-01-25T12:33:33;9.30;99.90
9497;DHT22;4786;51.270;4.456;2024-01-25T12:35:59;9.40;99.90
9497;DHT22;4786;51.270;4.456;2024-01-25T12:38:26;9.50;99.90
9497;DHT22;4786;51.270;4.456;2024-01-25T12:40:53;9.50;99.90
9497;DHT22;4786;51.270;4.456;2024-01-25T12:43:19;9.50;99.90
9497;DHT22;4786;51.270;4.456;2024-01-25T12:45:49;9.60;99.90
9497;DHT22;4786;51.270;4.456;2024-01-25T12:48:15;9.50;99.90
9497;DHT22;4786;51.270;4.456;2024-01-25T12:50:42;9.60;99.90
9497;DHT22;4786;51.270;4.456;2024-01-25T12:53:10;9.60;99.90
9497;DHT22;4786;51.270;4.456;2024-01-25T12:55:37;9.60;99.90
9497;DHT22;4786;51.270;4.456;2024-01-25T12:58:03;9.60;99.90
9497;DHT22;4786;51.270;4.456;2024-01-25T13:00:29;9.70;99.90
9497;DHT22;4786;51.270;4.456;2024-01-25T13:02:55;9.70;99.90
9497;DHT22;4786;51.270;4.456;2024-01-25T13:05:22;9.70;99.90
9497;DHT22;4786;51.270;4.456;2024-01-25T13:07:48;9.70;99.90
9497;DHT22;4786;51.270;4.456;2024-01-25T13:10:14;9.70;99.90
9497;DHT22;4786;51.270;4.456;2024-01-25T13:12:41;9.70;99.90
9497;DHT22;4786;51.270;4.456;2024-01-25T13:15:07;9.70;99.90
9497;DHT22;4786;51.270;4.456;2024-01-25T13:17:37;9.70;99.90
9497;DHT22;4786;51.270;4.456;2024-01-25T13:20:03;9.70;99.90
9497;DHT22;4786;51.270;4.456;2024-01-25T13:22:31;9.80;99.90
9497;DHT22;4786;51.270;4.456;2024-01-25T13:24:59;9.80;99.90
9497;DHT22;4786;51.270;4.456;2024-01-25T13:27:25;9.80;99.90
9497;DHT22;4786;51.270;4.456;2024-01-25T13:29:51;9.80;99.90
9497;DHT22;4786;51.270;4.456;2024-01-25T13:32:16;9.80;99.90
9497;DHT22;4786;51.270;4.456;2024-01-25T13:34:43;9.70;99.90
9497;DHT22;4786;51.270;4.456;2024-01-25T13:37:08;9.70;99.90
9497;DHT22;4786;51.270;4.456;2024-01-25T13:39:34;9.70;99.90
9497;DHT22;4786;51.270;4.456;2024-01-25T13:42:01;9.70;99.90
9497;DHT22;4786;51.270;4.456;2024-01-25T13:44:27;9.70;99.90
9497;DHT22;4786;51.270;4.456;2024-01-25T13:46:53;9.70;99.90
9497;DHT22;4786;51.270;4.456;2024-01-25T13:49:21;9.60;99.90
9497;DHT22;4786;51.270;4.456;2024-01-25T13:51:47;9.60;99.90
9497;DHT22;4786;51.270;4.456;2024-01-25T13:54:13;9.60;99.90
9497;DHT22;4786;51.270;4.456;2024-01-25T13:56:39;9.70;99.90
9497;DHT22;4786;51.270;4.456;2024-01-25T13:59:06;9.70;99.90
9497;DHT22;4786;51.270;4.456;2024-01-25T14:01:33;9.70;99.90
9497;DHT22;4786;51.270;4.456;2024-01-25T14:03:59;9.70;99.90
9497;DHT22;4786;51.270;4.456;2024-01-25T14:06:25;9.70;99.90
9497;DHT22;4786;51.270;4.456;2024-01-25T14:08:51;9.70;99.90
9497;DHT22;4786;51.270;4.456;2024-01-25T14:11:17;9.70;99.90
9497;DHT22;4786;51.270;4.456;2024-01-25T14:13:43;9.70;99.90
9497;DHT22;4786;51.270;4.456;2024-01-25T14:16:09;9.70;99.90
9497;DHT22;4786;51.270;4.456;2024-01-25T14:18:39;9.70;99.90
9497;DHT22;4786;51.270;4.456;2024-01-25T14:21:06;9.80;99.90
9497;DHT22;4786;51.270;4.456;2024-01-25T14:23:32;9.80;99.90
9497;DHT22;4786;51.270;4.456;2024-01-25T14:25:58;9.80;99.90
9497;DHT22;4786;51.270;4.456;2024-01-25T14:28:24;9.80;99.90
9497;DHT22;4786;51.270;4.456;2024-01-25T14:30:50;9.90;99.90
9497;DHT22;4786;51.270;4.456;2024-01-25T14:33:15;9.90;99.90
9497;DHT22;4786;51.270;4.456;2024-01-25T14:35:42;9.90;99.90
9497;DHT22;4786;51.270;4.456;2024-01-25T14:38:07;10.00;99.90
9497;DHT22;4786;51.270;4.456;2024-01-25T14:40:33;10.00;99.90
9497;DHT22;4786;51.270;4.456;2024-01-25T14:43:00;9.90;99.90
9497;DHT22;4786;51.270;4.456;2024-01-25T14:45:27;9.90;99.90
9497;DHT22;4786;51.270;4.456;2024-01-25T14:47:55;9.90;99.90
9497;DHT22;4786;51.270;4.456;2024-01-25T14:50:21;9.90;99.90
9497;DHT22;4786;51.270;4.456;2024-01-25T14:52:47;9.90;99.90
9497;DHT22;4786;51.270;4.456;2024-01-25T14:55:14;9.90;99.90
9497;DHT22;4786;51.270;4.456;2024-01-25T14:57:39;9.90;99.90
9497;DHT22;4786;51.270;4.456;2024-01-25T15:00:06;9.80;99.90
9497;DHT22;4786;51.270;4.456;2024-01-25T15:02:33;9.90;99.90
9497;DHT22;4786;51.270;4.456;2024-01-25T15:04:59;9.90;99.90
9497;DHT22;4786;51.270;4.456;2024-01-25T15:07:25;9.90;99.90
9497;DHT22;4786;51.270;4.456;2024-01-25T15:09:50;10.00;99.90
9497;DHT22;4786;51.270;4.456;2024-01-25T15:12:16;10.10;99.90
9497;DHT22;4786;51.270;4.456;2024-01-25T15:14:43;10.00;99.90
9497;DHT22;4786;51.270;4.456;2024-01-25T15:17:09;10.00;99.90
9497;DHT22;4786;51.270;4.456;2024-01-25T15:19:36;10.00;99.90
9497;DHT22;4786;51.270;4.456;2024-01-25T15:22:03;10.00;99.90
9497;DHT22;4786;51.270;4.456;2024-01-25T15:24:29;10.10;99.90
9497;DHT22;4786;51.270;4.456;2024-01-25T15:26:57;10.20;99.90
9497;DHT22;4786;51.270;4.456;2024-01-25T15:29:22;10.20;99.90
9497;DHT22;4786;51.270;4.456;2024-01-25T15:31:48;10.20;99.90
9497;DHT22;4786;51.270;4.456;2024-01-25T15:34:14;10.20;99.90
9497;DHT22;4786;51.270;4.456;2024-01-25T15:36:41;10.10;99.90
9497;DHT22;4786;51.270;4.456;2024-01-25T15:39:10;10.10;99.90
9497;DHT22;4786;51.270;4.456;2024-01-25T15:41:36;10.10;99.90
9497;DHT22;4786;51.270;4.456;2024-01-25T15:44:03;10.10;99.90
9497;DHT22;4786;51.270;4.456;2024-01-25T15:46:28;10.10;99.90
9497;DHT22;4786;51.270;4.456;2024-01-25T15:48:54;10.10;99.90
9497;DHT22;4786;51.270;4.456;2024-01-25T15:51:21;10.10;99.90
9497;DHT22;4786;51.270;4.456;2024-01-25T15:53:48;10.20;99.90
9497;DHT22;4786;51.270;4.456;2024-01-25T15:56:14;10.20;99.90
9497;DHT22;4786;51.270;4.456;2024-01-25T15:58:39;10.20;99.90
9497;DHT22;4786;51.270;4.456;2024-01-25T16:01:06;10.20;99.90
9497;DHT22;4786;51.270;4.456;2024-01-25T16:03:31;10.20;99.90
9497;DHT22;4786;51.270;4.456;2024-01-25T16:05:57;10.20;99.90
9497;DHT22;4786;51.270;4.456;2024-01-25T16:08:23;10.20;99.90
9497;DHT22;4786;51.270;4.456;2024-01-25T16:10:48;10.20;99.90
9497;DHT22;4786;51.270;4.456;2024-01-25T16:13:15;10.20;99.90